sensor_id;sensor_type;location;lat;lon;timestamp;pressure;altitude;pressure_sealevel;temperature;humidity
141;BME280;65;48.778;9.160;2024-02-23T00:01:30;96590.25;;;5.60;100.00
141;BME280;65;48.778;9.160;2024-02-23T00:04:16;96590.88;;;5.51;100.00
141;BME280;65;48.778;9.160;2024-02-23T00:07:04;96587.84;;;5.57;100.00
141;BME280;65;48.778;9.160;2024-02-23T00:09:50;96590.25;;;5.60;100.00
141;BME280;65;48.778;9.160;2024-02-23T00:12:36;96591.16;;;5.71;100.00
141;BME280;65;48.778;9.160;2024-02-23T00:15:29;96580.06;;;5.68;100.00
141;BME280;65;48.778;9.160;2024-02-23T00:18:14;96585.63;;;5.63;100.00
141;BME280;65;48.778;9.160;2024-02-23T00:21:02;96595.28;;;5.63;100.00
141;BME280;65;48.778;9.160;2024-02-23T00:23:48;96613.63;;;5.63;100.00
141;BME280;65;48.778;9.160;2024-02-23T00:26:34;96611.50;;;5.68;100.00
141;BME280;65;48.778;9.160;2024-02-23T00:29:19;96617.81;;;5.78;100.00
141;BME280;65;48.778;9.160;2024-02-23T00:32:07;96622.84;;;5.68;100.00
141;BME280;65;48.778;9.160;2024-02-23T00:34:52;96625.66;;;5.65;100.00
141;BME280;65;48.778;9.160;2024-02-23T00:37:38;96638.03;;;5.63;100.00
141;BME280;65;48.778;9.160;2024-02-23T00:40:24;96638.88;;;5.77;100.00
141;BME280;65;48.778;9.160;2024-02-23T00:43:10;96638.03;;;5.76;100.00
141;BME280;65;48.778;9.160;2024-02-23T00:45:55;96630.38;;;5.73;100.00
141;BME280;65;48.778;9.160;2024-02-23T00:48:41;96646.00;;;5.75;100.00
141;BME280;65;48.778;9.160;2024-02-23T00:51:27;96628.81;;;5.70;100.00
141;BME280;65;48.778;9.160;2024-02-23T00:54:13;96627.03;;;5.71;100.00
141;BME280;65;48.778;9.160;2024-02-23T00:56:58;96633.00;;;5.73;100.00
141;BME280;65;48.778;9.160;2024-02-23T00:59:44;96650.41;;;5.74;100.00
141;BME280;65;48.778;9.160;2024-02-23T01:02:31;96659.66;;;5.80;100.00
141;BME280;65;48.778;9.160;2024-02-23T01:05:18;96660.06;;;5.86;100.00
141;BME280;65;48.778;9.160;2024-02-23T01:08:04;96660.06;;;5.86;100.00
141;BME280;65;48.778;9.160;2024-02-23T01:10:50;96663.97;;;5.93;100.00
141;BME280;65;48.778;9.160;2024-02-23T01:13:36;96666.16;;;5.87;100.00
141;BME280;65;48.778;9.160;2024-02-23T01:16:22;96663.44;;;5.88;100.00
141;BME280;65;48.778;9.160;2024-02-23T01:19:07;96662.94;;;5.96;100.00
141;BME280;65;48.778;9.160;2024-02-23T01:21:54;96645.06;;;5.88;100.00
141;BME280;65;48.778;9.160;2024-02-23T01:24:44;96646.84;;;5.75;100.00
141;BME280;65;48.778;9.160;2024-02-23T01:27:30;96653.59;;;5.79;100.00
141;BME280;65;48.778;9.160;2024-02-23T01:30:16;96654.22;;;5.83;100.00
141;BME280;65;48.778;9.160;2024-02-23T01:33:02;96672.75;;;5.80;100.00
141;BME280;65;48.778;9.160;2024-02-23T01:35:48;96666.97;;;5.75;100.00
141;BME280;65;48.778;9.160;2024-02-23T01:38:33;96666.88;;;5.76;100.00
141;BME280;65;48.778;9.160;2024-02-23T01:41:19;96665.44;;;5.85;100.00
141;BME280;65;48.778;9.160;2024-02-23T01:44:05;96670.97;;;5.80;100.00
141;BME280;65;48.778;9.160;2024-02-23T01:46:51;96674.13;;;5.85;100.00
141;BME280;65;48.778;9.160;2024-02-23T01:49:37;96681.25;;;5.83;100.00
141;BME280;65;48.778;9.160;2024-02-23T01:52:22;96672.91;;;5.91;100.00
141;BME280;65;48.778;9.160;2024-02-23T01:55:08;96675.28;;;6.07;100.00
141;BME280;65;48.778;9.160;2024-02-23T01:57:54;96674.03;;;6.12;100.00
141;BME280;65;48.778;9.160;2024-02-23T02:00:40;96673.94;;;6.01;100.00
141;BME280;65;48.778;9.160;2024-02-23T02:03:26;96680.97;;;6.00;100.00
141;BME280;65;48.778;9.160;2024-02-23T02:06:12;96672.88;;;6.03;100.00
141;BME280;65;48.778;9.160;2024-02-23T02:08:58;96674.34;;;6.08;100.00
141;BME280;65;48.778;9.160;2024-02-23T02:11:50;96681.91;;;5.99;100.00
141;BME280;65;48.778;9.160;2024-02-23T02:14:36;96699.22;;;5.89;100.00
141;BME280;65;48.778;9.160;2024-02-23T02:17:22;96694.47;;;5.82;100.00
141;BME280;65;48.778;9.160;2024-02-23T02:20:11;96696.03;;;5.84;100.00
141;BME280;65;48.778;9.160;2024-02-23T02:22:57;96694.56;;;5.80;100.00
141;BME280;65;48.778;9.160;2024-02-23T02:25:43;96698.91;;;5.94;100.00
141;BME280;65;48.778;9.160;2024-02-23T02:28:29;96697.81;;;5.84;100.00
141;BME280;65;48.778;9.160;2024-02-23T02:31:15;96694.81;;;5.90;100.00
141;BME280;65;48.778;9.160;2024-02-23T02:34:01;96695.53;;;5.79;100.00
141;BME280;65;48.778;9.160;2024-02-23T02:36:47;96694.38;;;5.83;100.00
141;BME280;65;48.778;9.160;2024-02-23T02:39:32;96702.69;;;5.90;100.00
141;BME280;65;48.778;9.160;2024-02-23T02:42:18;96694.69;;;5.79;100.00
141;BME280;65;48.778;9.160;2024-02-23T02:45:04;96678.50;;;5.72;100.00
141;BME280;65;48.778;9.160;2024-02-23T02:47:50;96674.72;;;5.76;100.00
141;BME280;65;48.778;9.160;2024-02-23T02:50:36;96684.63;;;5.85;100.00
141;BME280;65;48.778;9.160;2024-02-23T02:53:22;96671.81;;;5.81;100.00
141;BME280;65;48.778;9.160;2024-02-23T02:56:07;96681.59;;;5.91;100.00
141;BME280;65;48.778;9.160;2024-02-23T02:58:53;96685.06;;;5.92;100.00
141;BME280;65;48.778;9.160;2024-02-23T03:01:39;96686.28;;;5.86;100.00
141;BME280;65;48.778;9.160;2024-02-23T03:04:25;96691.53;;;5.86;100.00
141;BME280;65;48.778;9.160;2024-02-23T03:07:11;96690.34;;;5.78;100.00
141;BME280;65;48.778;9.160;2024-02-23T03:09:57;96674.31;;;5.69;100.00
141;BME280;65;48.778;9.160;2024-02-23T03:12:42;96667.91;;;5.61;100.00
141;BME280;65;48.778;9.160;2024-02-23T03:15:28;96684.59;;;5.60;100.00
141;BME280;65;48.778;9.160;2024-02-23T03:18:14;96689.63;;;5.63;100.00
141;BME280;65;48.778;9.160;2024-02-23T03:21:00;96679.44;;;5.58;100.00
141;BME280;65;48.778;9.160;2024-02-23T03:23:46;96667.69;;;5.51;100.00
141;BME280;65;48.778;9.160;2024-02-23T03:26:31;96683.84;;;5.45;100.00
141;BME280;65;48.778;9.160;2024-02-23T03:29:17;96701.13;;;5.48;100.00
141;BME280;65;48.778;9.160;2024-02-23T03:32:03;96709.09;;;5.46;100.00
141;BME280;65;48.778;9.160;2024-02-23T03:34:49;96682.25;;;5.43;100.00
141;BME280;65;48.778;9.160;2024-02-23T03:37:35;96678.25;;;5.37;100.00
141;BME280;65;48.778;9.160;2024-02-23T03:40:21;96695.03;;;5.34;100.00
141;BME280;65;48.778;9.160;2024-02-23T03:43:06;96692.50;;;5.33;100.00
141;BME280;65;48.778;9.160;2024-02-23T03:45:52;96705.81;;;5.30;100.00
141;BME280;65;48.778;9.160;2024-02-23T03:48:38;96701.72;;;5.26;100.00
141;BME280;65;48.778;9.160;2024-02-23T03:51:23;96706.50;;;5.19;100.00
141;BME280;65;48.778;9.160;2024-02-23T03:54:09;96717.91;;;5.18;100.00
141;BME280;65;48.778;9.160;2024-02-23T03:56:55;96716.97;;;5.19;100.00
141;BME280;65;48.778;9.160;2024-02-23T03:59:54;96724.81;;;5.19;100.00
141;BME280;65;48.778;9.160;2024-02-23T04:02:40;96727.00;;;5.13;100.00
141;BME280;65;48.778;9.160;2024-02-23T04:05:25;96705.09;;;5.14;100.00
141;BME280;65;48.778;9.160;2024-02-23T04:08:12;96697.78;;;5.19;100.00
141;BME280;65;48.778;9.160;2024-02-23T04:10:58;96703.97;;;5.18;100.00
141;BME280;65;48.778;9.160;2024-02-23T04:13:44;96715.28;;;5.18;100.00
141;BME280;65;48.778;9.160;2024-02-23T04:16:30;96710.44;;;5.12;100.00
141;BME280;65;48.778;9.160;2024-02-23T04:19:15;96715.16;;;5.07;100.00
141;BME280;65;48.778;9.160;2024-02-23T04:22:01;96708.97;;;5.08;100.00
141;BME280;65;48.778;9.160;2024-02-23T04:24:47;96720.53;;;5.18;98.74
141;BME280;65;48.778;9.160;2024-02-23T04:27:33;96713.06;;;5.12;98.03
141;BME280;65;48.778;9.160;2024-02-23T04:30:18;96715.47;;;5.15;100.00
141;BME280;65;48.778;9.160;2024-02-23T04:33:04;96733.28;;;5.10;100.00
141;BME280;65;48.778;9.160;2024-02-23T04:35:50;96715.66;;;4.99;100.00
141;BME280;65;48.778;9.160;2024-02-23T04:38:35;96707.88;;;4.98;100.00
141;BME280;65;48.778;9.160;2024-02-23T04:41:21;96722.97;;;4.94;99.50
141;BME280;65;48.778;9.160;2024-02-23T04:44:10;96726.50;;;4.93;100.00
141;BME280;65;48.778;9.160;2024-02-23T04:46:56;96711.34;;;4.98;99.34
141;BME280;65;48.778;9.160;2024-02-23T04:49:41;96717.81;;;4.93;100.00
141;BME280;65;48.778;9.160;2024-02-23T04:52:27;96721.66;;;4.87;100.00
141;BME280;65;48.778;9.160;2024-02-23T04:55:13;96705.78;;;4.90;98.76
141;BME280;65;48.778;9.160;2024-02-23T04:57:59;96701.56;;;4.88;99.77
141;BME280;65;48.778;9.160;2024-02-23T05:00:44;96702.16;;;4.79;99.93
141;BME280;65;48.778;9.160;2024-02-23T05:03:30;96693.88;;;4.72;100.00
141;BME280;65;48.778;9.160;2024-02-23T05:06:16;96688.94;;;4.67;100.00
141;BME280;65;48.778;9.160;2024-02-23T05:09:02;96694.53;;;4.61;100.00
141;BME280;65;48.778;9.160;2024-02-23T05:11:48;96690.31;;;4.59;100.00
141;BME280;65;48.778;9.160;2024-02-23T05:14:34;96691.75;;;4.50;100.00
141;BME280;65;48.778;9.160;2024-02-23T05:17:20;96692.44;;;4.39;100.00
141;BME280;65;48.778;9.160;2024-02-23T05:20:06;96693.75;;;4.32;100.00
141;BME280;65;48.778;9.160;2024-02-23T05:22:55;96703.81;;;4.38;100.00
141;BME280;65;48.778;9.160;2024-02-23T05:25:41;96697.38;;;4.44;100.00
141;BME280;65;48.778;9.160;2024-02-23T05:28:27;96700.34;;;4.52;100.00
141;BME280;65;48.778;9.160;2024-02-23T05:31:13;96718.09;;;4.47;100.00
141;BME280;65;48.778;9.160;2024-02-23T05:33:59;96717.72;;;4.53;100.00
141;BME280;65;48.778;9.160;2024-02-23T05:36:45;96722.19;;;4.51;100.00
141;BME280;65;48.778;9.160;2024-02-23T05:39:31;96719.59;;;4.51;100.00
141;BME280;65;48.778;9.160;2024-02-23T05:42:17;96722.66;;;4.58;100.00
141;BME280;65;48.778;9.160;2024-02-23T05:45:03;96728.47;;;4.63;100.00
141;BME280;65;48.778;9.160;2024-02-23T05:47:54;96725.66;;;4.66;100.00
141;BME280;65;48.778;9.160;2024-02-23T05:50:40;96730.78;;;4.53;100.00
141;BME280;65;48.778;9.160;2024-02-23T05:53:25;96742.38;;;4.49;100.00
141;BME280;65;48.778;9.160;2024-02-23T05:56:11;96741.28;;;4.39;100.00
141;BME280;65;48.778;9.160;2024-02-23T05:58:57;96739.50;;;4.39;100.00
141;BME280;65;48.778;9.160;2024-02-23T06:01:42;96737.66;;;4.27;100.00
141;BME280;65;48.778;9.160;2024-02-23T06:04:29;96742.31;;;4.22;100.00
141;BME280;65;48.778;9.160;2024-02-23T06:07:15;96738.41;;;4.15;100.00
141;BME280;65;48.778;9.160;2024-02-23T06:10:06;96743.81;;;4.12;100.00
141;BME280;65;48.778;9.160;2024-02-23T06:12:52;96755.31;;;4.09;100.00
141;BME280;65;48.778;9.160;2024-02-23T06:15:38;96757.91;;;4.09;100.00
141;BME280;65;48.778;9.160;2024-02-23T06:18:24;96771.44;;;4.16;100.00
141;BME280;65;48.778;9.160;2024-02-23T06:21:16;96774.16;;;4.15;100.00
141;BME280;65;48.778;9.160;2024-02-23T06:24:03;96787.59;;;4.08;100.00
141;BME280;65;48.778;9.160;2024-02-23T06:26:49;96779.66;;;4.10;100.00
141;BME280;65;48.778;9.160;2024-02-23T06:29:36;96780.22;;;4.15;100.00
141;BME280;65;48.778;9.160;2024-02-23T06:32:22;96766.03;;;4.19;100.00
141;BME280;65;48.778;9.160;2024-02-23T06:35:08;96775.28;;;4.25;100.00
141;BME280;65;48.778;9.160;2024-02-23T06:37:54;96771.25;;;4.48;100.00
141;BME280;65;48.778;9.160;2024-02-23T06:40:40;96765.38;;;4.44;100.00
141;BME280;65;48.778;9.160;2024-02-23T06:43:25;96758.66;;;4.40;100.00
141;BME280;65;48.778;9.160;2024-02-23T06:46:12;96757.34;;;4.47;100.00
141;BME280;65;48.778;9.160;2024-02-23T06:48:58;96757.88;;;4.52;100.00
141;BME280;65;48.778;9.160;2024-02-23T06:51:43;96754.69;;;4.61;100.00
141;BME280;65;48.778;9.160;2024-02-23T06:54:29;96762.00;;;4.70;100.00
141;BME280;65;48.778;9.160;2024-02-23T06:57:15;96760.38;;;4.82;100.00
141;BME280;65;48.778;9.160;2024-02-23T07:00:01;96766.25;;;4.86;100.00
141;BME280;65;48.778;9.160;2024-02-23T07:02:47;96762.06;;;4.83;100.00
141;BME280;65;48.778;9.160;2024-02-23T07:05:33;96763.25;;;4.92;100.00
141;BME280;65;48.778;9.160;2024-02-23T07:08:20;96766.81;;;4.91;100.00
141;BME280;65;48.778;9.160;2024-02-23T07:11:06;96769.44;;;4.91;100.00
141;BME280;65;48.778;9.160;2024-02-23T07:13:52;96765.72;;;5.07;100.00
141;BME280;65;48.778;9.160;2024-02-23T07:16:38;96765.84;;;5.06;100.00
141;BME280;65;48.778;9.160;2024-02-23T07:19:25;96761.03;;;5.13;100.00
141;BME280;65;48.778;9.160;2024-02-23T07:22:11;96779.38;;;5.13;100.00
141;BME280;65;48.778;9.160;2024-02-23T07:24:56;96773.88;;;5.03;100.00
141;BME280;65;48.778;9.160;2024-02-23T07:27:42;96783.97;;;5.09;100.00
141;BME280;65;48.778;9.160;2024-02-23T07:30:28;96792.75;;;5.22;100.00
141;BME280;65;48.778;9.160;2024-02-23T07:33:14;96782.41;;;5.33;100.00
141;BME280;65;48.778;9.160;2024-02-23T07:35:59;96779.28;;;5.41;100.00
141;BME280;65;48.778;9.160;2024-02-23T07:38:45;96770.94;;;5.49;100.00
141;BME280;65;48.778;9.160;2024-02-23T07:41:31;96762.97;;;5.50;100.00
141;BME280;65;48.778;9.160;2024-02-23T07:44:17;96762.13;;;5.50;100.00
141;BME280;65;48.778;9.160;2024-02-23T07:47:03;96764.13;;;5.59;100.00
141;BME280;65;48.778;9.160;2024-02-23T07:49:48;96764.06;;;5.73;100.00
141;BME280;65;48.778;9.160;2024-02-23T07:52:34;96769.66;;;5.81;100.00
141;BME280;65;48.778;9.160;2024-02-23T07:55:20;96772.28;;;5.81;100.00
141;BME280;65;48.778;9.160;2024-02-23T07:58:06;96772.28;;;5.81;100.00
141;BME280;65;48.778;9.160;2024-02-23T08:00:52;96780.13;;;5.81;100.00
141;BME280;65;48.778;9.160;2024-02-23T08:03:38;96783.44;;;5.70;100.00
141;BME280;65;48.778;9.160;2024-02-23T08:06:24;96789.84;;;5.66;100.00
141;BME280;65;48.778;9.160;2024-02-23T08:09:09;96791.47;;;5.55;100.00
141;BME280;65;48.778;9.160;2024-02-23T08:11:55;96784.78;;;5.63;100.00
141;BME280;65;48.778;9.160;2024-02-23T08:14:41;96777.88;;;5.62;100.00
141;BME280;65;48.778;9.160;2024-02-23T08:17:27;96775.78;;;5.67;100.00
141;BME280;65;48.778;9.160;2024-02-23T08:20:14;96772.53;;;5.64;100.00
141;BME280;65;48.778;9.160;2024-02-23T08:23:00;96775.47;;;5.72;100.00
141;BME280;65;48.778;9.160;2024-02-23T08:25:47;96777.78;;;5.77;100.00
141;BME280;65;48.778;9.160;2024-02-23T08:28:32;96770.88;;;5.76;100.00
141;BME280;65;48.778;9.160;2024-02-23T08:31:18;96781.66;;;5.98;100.00
141;BME280;65;48.778;9.160;2024-02-23T08:34:04;96776.41;;;5.98;100.00
141;BME280;65;48.778;9.160;2024-02-23T08:36:50;96772.00;;;5.98;100.00
141;BME280;65;48.778;9.160;2024-02-23T08:39:36;96772.47;;;5.78;100.00
141;BME280;65;48.778;9.160;2024-02-23T08:42:22;96776.00;;;5.77;100.00
141;BME280;65;48.778;9.160;2024-02-23T08:45:08;96779.44;;;5.92;100.00
141;BME280;65;48.778;9.160;2024-02-23T08:47:55;96780.09;;;6.08;100.00
141;BME280;65;48.778;9.160;2024-02-23T08:50:41;96788.91;;;6.20;100.00
141;BME280;65;48.778;9.160;2024-02-23T08:53:26;96790.59;;;6.21;99.87
141;BME280;65;48.778;9.160;2024-02-23T08:56:12;96793.09;;;6.35;97.43
141;BME280;65;48.778;9.160;2024-02-23T08:58:58;96786.00;;;6.37;97.57
141;BME280;65;48.778;9.160;2024-02-23T09:01:44;96794.81;;;6.36;93.62
141;BME280;65;48.778;9.160;2024-02-23T09:04:32;96782.72;;;6.33;92.45
141;BME280;65;48.778;9.160;2024-02-23T09:07:18;96784.38;;;6.22;94.54
141;BME280;65;48.778;9.160;2024-02-23T09:10:07;96785.97;;;6.12;95.65
141;BME280;65;48.778;9.160;2024-02-23T09:12:53;96795.00;;;6.33;88.88
141;BME280;65;48.778;9.160;2024-02-23T09:15:39;96793.63;;;6.15;93.80
141;BME280;65;48.778;9.160;2024-02-23T09:18:24;96798.78;;;6.42;89.95
141;BME280;65;48.778;9.160;2024-02-23T09:21:10;96790.38;;;6.49;92.35
141;BME280;65;48.778;9.160;2024-02-23T09:23:56;96783.88;;;6.42;91.34
141;BME280;65;48.778;9.160;2024-02-23T09:26:41;96794.88;;;6.60;86.90
141;BME280;65;48.778;9.160;2024-02-23T09:29:27;96795.19;;;6.68;90.78
141;BME280;65;48.778;9.160;2024-02-23T09:32:13;96797.16;;;6.77;84.47
141;BME280;65;48.778;9.160;2024-02-23T09:34:59;96800.22;;;6.71;84.98
141;BME280;65;48.778;9.160;2024-02-23T09:37:44;96808.63;;;6.63;87.90
141;BME280;65;48.778;9.160;2024-02-23T09:40:30;96807.59;;;6.53;88.38
141;BME280;65;48.778;9.160;2024-02-23T09:43:16;96805.91;;;6.65;88.19
141;BME280;65;48.778;9.160;2024-02-23T09:46:03;96813.03;;;6.76;84.29
141;BME280;65;48.778;9.160;2024-02-23T09:48:49;96803.03;;;6.81;86.37
141;BME280;65;48.778;9.160;2024-02-23T09:51:35;96799.88;;;7.01;79.61
141;BME280;65;48.778;9.160;2024-02-23T09:54:22;96799.97;;;6.87;82.73
141;BME280;65;48.778;9.160;2024-02-23T09:57:08;96803.56;;;6.86;82.12
141;BME280;65;48.778;9.160;2024-02-23T09:59:54;96798.91;;;7.02;82.81
141;BME280;65;48.778;9.160;2024-02-23T10:02:40;96803.81;;;7.19;84.65
141;BME280;65;48.778;9.160;2024-02-23T10:05:30;96791.97;;;7.61;79.61
141;BME280;65;48.778;9.160;2024-02-23T10:08:17;96794.78;;;7.82;75.32
141;BME280;65;48.778;9.160;2024-02-23T10:11:03;96799.75;;;7.98;74.25
141;BME280;65;48.778;9.160;2024-02-23T10:13:49;96797.59;;;8.03;74.56
141;BME280;65;48.778;9.160;2024-02-23T10:16:35;96806.81;;;7.98;71.80
141;BME280;65;48.778;9.160;2024-02-23T10:19:22;96808.97;;;8.04;71.24
141;BME280;65;48.778;9.160;2024-02-23T10:22:07;96817.16;;;8.12;70.13
141;BME280;65;48.778;9.160;2024-02-23T10:24:53;96813.09;;;8.19;72.44
141;BME280;65;48.778;9.160;2024-02-23T10:27:40;96815.44;;;8.46;68.54
141;BME280;65;48.778;9.160;2024-02-23T10:30:27;96815.38;;;8.23;70.31
141;BME280;65;48.778;9.160;2024-02-23T10:33:14;96807.66;;;8.44;67.84
141;BME280;65;48.778;9.160;2024-02-23T10:36:00;96814.91;;;8.30;72.98
141;BME280;65;48.778;9.160;2024-02-23T10:38:46;96808.03;;;8.51;67.72
141;BME280;65;48.778;9.160;2024-02-23T10:41:34;96803.88;;;8.71;69.07
141;BME280;65;48.778;9.160;2024-02-23T10:44:21;96800.53;;;8.91;66.36
141;BME280;65;48.778;9.160;2024-02-23T10:47:07;96806.75;;;8.79;65.83
141;BME280;65;48.778;9.160;2024-02-23T10:49:53;96802.56;;;8.87;66.29
141;BME280;65;48.778;9.160;2024-02-23T10:52:43;96796.91;;;8.59;65.59
141;BME280;65;48.778;9.160;2024-02-23T10:55:31;96800.53;;;8.69;64.83
141;BME280;65;48.778;9.160;2024-02-23T10:58:18;96788.28;;;8.45;65.09
141;BME280;65;48.778;9.160;2024-02-23T11:01:06;96796.19;;;8.56;65.70
141;BME280;65;48.778;9.160;2024-02-23T11:03:54;96801.00;;;8.74;66.37
141;BME280;65;48.778;9.160;2024-02-23T11:06:41;96791.34;;;8.28;67.42
141;BME280;65;48.778;9.160;2024-02-23T11:09:27;96781.09;;;8.47;69.61
141;BME280;65;48.778;9.160;2024-02-23T11:12:22;96779.34;;;8.70;63.78
141;BME280;65;48.778;9.160;2024-02-23T11:15:25;96782.56;;;8.74;64.58
141;BME280;65;48.778;9.160;2024-02-23T11:18:22;96773.13;;;8.71;63.09
141;BME280;65;48.778;9.160;2024-02-23T11:21:10;96778.84;;;8.65;65.33
141;BME280;65;48.778;9.160;2024-02-23T11:23:56;96762.09;;;8.77;64.72
141;BME280;65;48.778;9.160;2024-02-23T11:26:41;96776.34;;;8.86;61.72
141;BME280;65;48.778;9.160;2024-02-23T11:29:29;96773.84;;;8.73;61.94
141;BME280;65;48.778;9.160;2024-02-23T11:32:16;96784.38;;;8.73;63.85
141;BME280;65;48.778;9.160;2024-02-23T11:35:02;96780.75;;;8.63;64.43
141;BME280;65;48.778;9.160;2024-02-23T11:37:52;96764.81;;;8.98;67.85
141;BME280;65;48.778;9.160;2024-02-23T11:40:46;96760.13;;;9.02;66.33
141;BME280;65;48.778;9.160;2024-02-23T11:43:34;96774.53;;;8.64;65.22
141;BME280;65;48.778;9.160;2024-02-23T11:46:21;96773.69;;;8.86;65.10
141;BME280;65;48.778;9.160;2024-02-23T11:49:07;96768.28;;;9.10;62.82
141;BME280;65;48.778;9.160;2024-02-23T11:51:53;96769.84;;;9.01;62.31
141;BME280;65;48.778;9.160;2024-02-23T11:54:39;96765.44;;;8.79;64.80
141;BME280;65;48.778;9.160;2024-02-23T11:57:25;96760.50;;;8.64;63.00
141;BME280;65;48.778;9.160;2024-02-23T12:00:12;96754.28;;;8.53;66.58
141;BME280;65;48.778;9.160;2024-02-23T12:02:58;96765.91;;;8.62;64.13
141;BME280;65;48.778;9.160;2024-02-23T12:05:44;96758.25;;;8.48;66.02
141;BME280;65;48.778;9.160;2024-02-23T12:08:31;96751.31;;;8.80;62.17
141;BME280;65;48.778;9.160;2024-02-23T12:11:23;96754.31;;;8.76;63.13
141;BME280;65;48.778;9.160;2024-02-23T12:14:10;96746.63;;;8.84;64.12
141;BME280;65;48.778;9.160;2024-02-23T12:16:57;96743.41;;;8.92;63.54
141;BME280;65;48.778;9.160;2024-02-23T12:19:43;96742.81;;;8.88;64.14
141;BME280;65;48.778;9.160;2024-02-23T12:22:29;96738.38;;;8.77;63.44
141;BME280;65;48.778;9.160;2024-02-23T12:25:15;96728.44;;;8.92;66.46
141;BME280;65;48.778;9.160;2024-02-23T12:28:00;96731.72;;;9.28;61.65
141;BME280;65;48.778;9.160;2024-02-23T12:30:46;96736.78;;;9.51;62.29
141;BME280;65;48.778;9.160;2024-02-23T12:33:35;96732.41;;;9.62;62.29
141;BME280;65;48.778;9.160;2024-02-23T12:36:22;96732.13;;;9.44;61.37
141;BME280;65;48.778;9.160;2024-02-23T12:39:08;96733.00;;;9.65;60.86
141;BME280;65;48.778;9.160;2024-02-23T12:41:54;96735.34;;;9.47;60.68
141;BME280;65;48.778;9.160;2024-02-23T12:44:43;96736.63;;;9.21;62.65
141;BME280;65;48.778;9.160;2024-02-23T12:47:29;96733.19;;;8.98;63.38
141;BME280;65;48.778;9.160;2024-02-23T12:50:14;96732.63;;;8.83;62.64
141;BME280;65;48.778;9.160;2024-02-23T12:53:00;96739.31;;;8.87;62.06
141;BME280;65;48.778;9.160;2024-02-23T12:55:47;96730.25;;;8.80;61.69
141;BME280;65;48.778;9.160;2024-02-23T12:58:32;96727.75;;;8.68;63.39
141;BME280;65;48.778;9.160;2024-02-23T13:01:18;96730.97;;;8.49;63.83
141;BME280;65;48.778;9.160;2024-02-23T13:04:05;96731.31;;;8.55;66.05
141;BME280;65;48.778;9.160;2024-02-23T13:06:55;96738.75;;;8.73;66.27
141;BME280;65;48.778;9.160;2024-02-23T13:09:41;96735.50;;;8.92;63.80
141;BME280;65;48.778;9.160;2024-02-23T13:12:27;96736.09;;;8.84;64.82
141;BME280;65;48.778;9.160;2024-02-23T13:15:13;96726.38;;;8.96;67.26
141;BME280;65;48.778;9.160;2024-02-23T13:18:00;96727.94;;;10.15;62.98
141;BME280;65;48.778;9.160;2024-02-23T13:20:48;96721.47;;;10.50;59.42
141;BME280;65;48.778;9.160;2024-02-23T13:23:34;96724.88;;;10.61;58.69
141;BME280;65;48.778;9.160;2024-02-23T13:26:21;96737.91;;;9.91;59.62
141;BME280;65;48.778;9.160;2024-02-23T13:29:07;96740.81;;;9.56;61.09
141;BME280;65;48.778;9.160;2024-02-23T13:31:53;96733.41;;;9.49;61.16
141;BME280;65;48.778;9.160;2024-02-23T13:34:39;96735.09;;;9.50;60.57
141;BME280;65;48.778;9.160;2024-02-23T13:37:34;96728.94;;;9.18;62.95
141;BME280;65;48.778;9.160;2024-02-23T13:40:20;96724.63;;;9.60;60.42
141;BME280;65;48.778;9.160;2024-02-23T13:43:08;96721.53;;;9.76;60.17
141;BME280;65;48.778;9.160;2024-02-23T13:45:55;96714.75;;;9.41;62.80
141;BME280;65;48.778;9.160;2024-02-23T13:48:42;96709.44;;;9.73;62.16
141;BME280;65;48.778;9.160;2024-02-23T13:51:28;96704.84;;;9.34;65.29
141;BME280;65;48.778;9.160;2024-02-23T13:54:14;96705.06;;;9.42;62.87
141;BME280;65;48.778;9.160;2024-02-23T13:56:59;96693.34;;;9.24;65.01
141;BME280;65;48.778;9.160;2024-02-23T13:59:45;96692.13;;;9.39;63.65
141;BME280;65;48.778;9.160;2024-02-23T14:02:31;96692.31;;;9.47;63.21
141;BME280;65;48.778;9.160;2024-02-23T14:05:20;96681.69;;;9.37;64.00
141;BME280;65;48.778;9.160;2024-02-23T14:08:07;96679.84;;;9.49;61.95
141;BME280;65;48.778;9.160;2024-02-23T14:10:53;96675.41;;;9.49;63.97
141;BME280;65;48.778;9.160;2024-02-23T14:13:39;96670.84;;;9.51;63.51
141;BME280;65;48.778;9.160;2024-02-23T14:16:24;96668.22;;;9.93;62.11
141;BME280;65;48.778;9.160;2024-02-23T14:19:10;96672.66;;;9.93;63.00
141;BME280;65;48.778;9.160;2024-02-23T14:21:56;96671.53;;;9.74;61.76
141;BME280;65;48.778;9.160;2024-02-23T14:24:42;96667.03;;;9.65;63.86
141;BME280;65;48.778;9.160;2024-02-23T14:27:28;96673.22;;;9.96;62.08
141;BME280;65;48.778;9.160;2024-02-23T14:30:14;96678.94;;;10.01;61.49
141;BME280;65;48.778;9.160;2024-02-23T14:32:59;96669.34;;;9.79;61.02
141;BME280;65;48.778;9.160;2024-02-23T14:35:46;96672.13;;;9.57;61.88
141;BME280;65;48.778;9.160;2024-02-23T14:38:31;96680.22;;;9.65;62.06
141;BME280;65;48.778;9.160;2024-02-23T14:41:17;96674.81;;;11.29;58.79
141;BME280;65;48.778;9.160;2024-02-23T14:44:03;96669.50;;;12.71;55.17
141;BME280;65;48.778;9.160;2024-02-23T14:46:49;96658.91;;;12.71;53.38
141;BME280;65;48.778;9.160;2024-02-23T14:49:35;96646.81;;;11.65;56.60
141;BME280;65;48.778;9.160;2024-02-23T14:52:21;96657.97;;;10.00;59.15
141;BME280;65;48.778;9.160;2024-02-23T14:55:07;96658.16;;;9.13;64.31
141;BME280;65;48.778;9.160;2024-02-23T14:57:56;96660.28;;;9.19;63.33
141;BME280;65;48.778;9.160;2024-02-23T15:00:43;96653.81;;;8.92;64.91
141;BME280;65;48.778;9.160;2024-02-23T15:03:29;96657.34;;;8.59;67.77
141;BME280;65;48.778;9.160;2024-02-23T15:06:16;96662.75;;;8.68;66.27
141;BME280;65;48.778;9.160;2024-02-23T15:09:04;96655.78;;;8.56;67.52
141;BME280;65;48.778;9.160;2024-02-23T15:11:49;96653.88;;;8.69;65.88
141;BME280;65;48.778;9.160;2024-02-23T15:14:35;96658.75;;;8.85;64.19
141;BME280;65;48.778;9.160;2024-02-23T15:17:22;96654.84;;;8.57;65.32
141;BME280;65;48.778;9.160;2024-02-23T15:20:08;96646.09;;;8.56;64.78
141;BME280;65;48.778;9.160;2024-02-23T15:22:54;96632.13;;;8.45;66.95
141;BME280;65;48.778;9.160;2024-02-23T15:25:40;96641.34;;;8.39;66.23
141;BME280;65;48.778;9.160;2024-02-23T15:28:25;96651.38;;;8.45;67.28
141;BME280;65;48.778;9.160;2024-02-23T15:31:11;96638.94;;;8.47;66.97
141;BME280;65;48.778;9.160;2024-02-23T15:33:57;96645.13;;;8.57;68.15
141;BME280;65;48.778;9.160;2024-02-23T15:36:46;96637.84;;;8.50;69.46
141;BME280;65;48.778;9.160;2024-02-23T15:39:31;96637.97;;;8.48;71.70
141;BME280;65;48.778;9.160;2024-02-23T15:42:17;96639.78;;;8.48;66.51
141;BME280;65;48.778;9.160;2024-02-23T15:45:06;96630.09;;;8.48;68.27
141;BME280;65;48.778;9.160;2024-02-23T15:47:52;96644.34;;;8.35;69.86
141;BME280;65;48.778;9.160;2024-02-23T15:50:37;96640.63;;;8.37;71.73